Time;durP1;ratioP1;P1;durP2;ratioP2;P2;SDS_P1;SDS_P2;PMS_P1;PMS_P2;Temp;Humidity;BMP_temperature;BMP_pressure;BME280_temperature;BME280_humidity;BME280_pressure;Samples;Min_cycle;Max_cycle;Signal;HPM_P1;HPM_P2
2023/10/21 00:01:20;;;;;;;11.10;4.88;;;;;;;20.37;nan;99183.19;5077060;28;20028;-72
2023/10/21 00:03:45;;;;;;;15.05;4.78;;;;;;;20.32;nan;99129.13;5061795;28;20026;-72
2023/10/21 00:06:11;;;;;;;12.27;4.20;;;;;;;;;;5058740;28;20042;-72
2023/10/21 00:08:36;;;;;;;19.67;5.07;;;;;;;20.32;nan;99142.50;5073596;28;20448;-72
2023/10/21 00:11:04;;;;;;;19.00;4.05;;;;;;;20.30;nan;99160.72;5076710;28;20296;-72
2023/10/21 00:13:29;;;;;;;15.43;4.90;;;;;;;;;;5073968;28;20028;-73
2023/10/21 00:15:54;;;;;;;16.00;4.80;;;;;;;20.24;nan;99136.06;5078463;28;20050;-71
2023/10/21 00:18:20;;;;;;;15.35;4.45;;;;;;;20.27;nan;99132.75;5075112;28;20660;-72
2023/10/21 00:20:45;;;;;;;13.27;4.40;;;;;;;20.26;nan;99131.19;5075504;28;20044;-70
2023/10/21 00:23:10;;;;;;;16.30;5.05;;;;;;;;;;5076098;28;20067;-71
2023/10/21 00:25:36;;;;;;;16.20;4.60;;;;;;;20.25;nan;99174.28;5074464;28;20094;-72
2023/10/21 00:28:03;;;;;;;12.93;4.43;;;;;;;20.25;nan;99140.31;5072893;28;20313;-73
2023/10/21 00:30:28;;;;;;;14.73;5.00;;;;;;;;;;5071804;28;20067;-71
2023/10/21 00:32:53;;;;;;;13.73;4.70;;;;;;;20.23;nan;99125.69;5080743;28;20048;-71
2023/10/21 00:35:19;;;;;;;14.68;4.25;;;;;;;20.22;nan;99135.59;5074537;28;20032;-72
2023/10/21 00:37:44;;;;;;;11.93;4.05;;;;;;;20.24;nan;99135.28;5072591;28;20028;-71
2023/10/21 00:40:10;;;;;;;15.63;4.75;;;;;;;20.19;nan;99169.09;5073039;28;20162;-71
2023/10/21 00:42:36;;;;;;;9.30;4.53;;;;;;;20.24;nan;99117.38;5075454;28;20498;-72
2023/10/21 00:45:03;;;;;;;9.13;4.38;;;;;;;20.12;nan;99120.69;5074022;28;20024;-72
2023/10/21 00:47:29;;;;;;;13.02;4.55;;;;;;;20.26;nan;99144.56;5074465;28;20429;-73
2023/10/21 00:49:55;;;;;;;12.55;4.65;;;;;;;20.25;nan;99134.97;5075151;28;20032;-73
2023/10/21 00:52:20;;;;;;;10.48;4.47;;;;;;;20.21;nan;99151.94;5076473;28;20031;-71
2023/10/21 00:54:46;;;;;;;12.20;4.65;;;;;;;20.22;nan;99140.19;5074617;28;20035;-72
2023/10/21 00:57:11;;;;;;;11.68;4.10;;;;;;;20.25;nan;99155.56;5055751;28;20036;-72
2023/10/21 00:59:40;;;;;;;18.90;4.97;;;;;;;20.21;nan;99133.25;5074899;28;20032;-71
2023/10/21 01:02:05;;;;;;;21.85;5.68;;;;;;;20.21;nan;99178.69;5072883;28;20079;-72
2023/10/21 01:04:31;;;;;;;12.43;4.57;;;;;;;20.21;nan;99138.59;5073374;28;20063;-71
2023/10/21 01:06:56;;;;;;;13.40;4.13;;;;;;;;;;5076324;28;20034;-72
2023/10/21 01:09:22;;;;;;;15.80;4.07;;;;;;;20.26;nan;99147.25;5058906;28;20038;-72
2023/10/21 01:11:47;;;;;;;10.57;4.40;;;;;;;20.33;nan;99155.53;5074657;28;20025;-71
2023/10/21 01:14:13;;;;;;;12.20;3.97;;;;;;;20.38;nan;99142.00;5066075;28;20061;-72
2023/10/21 01:16:38;;;;;;;13.68;3.53;;;;;;;20.51;nan;99155.47;5077086;28;20036;-71
2023/10/21 01:19:07;;;;;;;12.63;4.13;;;;;;;20.58;nan;99150.44;5076188;28;20028;-71
2023/10/21 01:21:32;;;;;;;10.73;4.68;;;;;;;20.67;nan;99185.97;5071596;28;20028;-72
2023/10/21 01:23:58;;;;;;;16.23;3.90;;;;;;;20.72;nan;99150.22;5074779;28;20378;-72
2023/10/21 01:26:23;;;;;;;13.02;4.10;;;;;;;20.77;nan;99155.38;5063614;28;20078;-70
2023/10/21 01:28:48;;;;;;;15.13;4.03;;;;;;;;;;5073502;28;20032;-74
2023/10/21 01:31:14;;;;;;;11.53;4.43;;;;;;;20.93;nan;99180.47;5056185;28;20039;-72
2023/10/21 01:33:40;;;;;;;16.75;4.45;;;;;;;20.95;nan;99188.97;5077834;28;20277;-70
2023/10/21 01:36:05;;;;;;;13.68;3.70;;;;;;;20.92;nan;99154.81;5072134;28;20051;-73
2023/10/21 01:38:31;;;;;;;12.65;4.07;;;;;;;20.96;nan;99187.84;5058957;28;20113;-73
2023/10/21 01:40:56;;;;;;;15.20;3.88;;;;;;;20.99;nan;99178.38;5074836;28;20032;-74
2023/10/21 01:43:21;;;;;;;16.60;3.60;;;;;;;21.02;nan;99183.09;5081493;28;20028;-72
2023/10/21 01:45:47;;;;;;;15.05;4.22;;;;;;;21.02;nan;99167.84;5078005;28;20020;-72
2023/10/21 01:48:13;;;;;;;13.27;3.60;;;;;;;21.04;nan;99216.44;5077635;28;20686;-73
2023/10/21 01:50:39;;;;;;;11.35;4.05;;;;;;;21.04;nan;99187.00;5076884;28;20135;-72
2023/10/21 01:53:05;;;;;;;8.95;3.60;;;;;;;21.03;nan;99190.81;5060460;28;20104;-73
2023/10/21 01:55:31;;;;;;;14.93;4.18;;;;;;;21.02;nan;99213.34;5081056;28;20044;-72
2023/10/21 01:57:56;;;;;;;16.58;3.50;;;;;;;21.02;nan;99197.28;5057634;28;20028;-72
2023/10/21 02:00:23;;;;;;;10.50;4.07;;;;;;;20.99;nan;99199.78;5079140;28;20064;-75
2023/10/21 02:02:57;;;;;;;11.98;4.22;;;;;;;20.99;nan;99205.94;5076500;28;20060;-75
2023/10/21 02:05:23;;;;;;;9.55;3.63;;;;;;;20.98;nan;99198.25;5081002;28;20024;-74
2023/10/21 02:07:51;;;;;;;13.10;3.63;;;;;;;20.98;nan;99195.56;5077134;28;20032;-71
2023/10/21 02:10:17;;;;;;;13.93;5.18;;;;;;;20.92;nan;99186.91;5078613;28;20394;-73
2023/10/21 02:12:43;;;;;;;16.48;3.63;;;;;;;20.93;nan;99185.06;5093790;27;20030;-74
2023/10/21 02:15:14;;;;;;;18.02;3.60;;;;;;;20.94;nan;99208.78;5060959;28;20047;-73
2023/10/21 02:17:40;;;;;;;16.65;4.07;;;;;;;;;;5077889;28;20111;-72
2023/10/21 02:20:06;;;;;;;10.27;3.60;;;;;;;20.92;nan;99213.69;5078836;28;20297;-73
2023/10/21 02:22:31;;;;;;;14.30;3.55;;;;;;;20.88;nan;99169.97;5079064;28;20031;-71
2023/10/21 02:24:57;;;;;;;12.85;3.40;;;;;;;20.88;nan;99177.19;5076892;28;20024;-73
2023/10/21 02:27:23;;;;;;;11.32;3.38;;;;;;;20.82;nan;99198.00;5062617;28;20142;-73
2023/10/21 02:29:49;;;;;;;12.73;3.85;;;;;;;20.80;nan;99190.28;5072126;28;20060;-74
2023/10/21 02:32:15;;;;;;;11.80;3.67;;;;;;;20.78;nan;99191.72;5093672;27;20032;-71
2023/10/21 02:34:41;;;;;;;11.10;3.83;;;;;;;20.75;nan;99182.44;5063541;28;20564;-72
2023/10/21 02:37:07;;;;;;;12.68;3.50;;;;;;;20.79;nan;99151.28;5065535;28;20437;-73
2023/10/21 02:39:32;;;;;;;10.05;3.17;;;;;;;20.78;nan;99162.28;5074368;28;20036;-75
2023/10/21 02:41:58;;;;;;;14.43;4.03;;;;;;;20.83;nan;99199.59;5062515;28;20027;-71
2023/10/21 02:44:24;;;;;;;16.13;3.40;;;;;;;20.81;nan;99188.41;5068651;28;20508;-72
2023/10/21 02:46:49;;;;;;;9.85;3.38;;;;;;;20.75;nan;99275.31;5065629;28;20024;-72
2023/10/21 02:49:14;;;;;;;11.68;3.70;;;;;;;;;;5075602;28;20036;-71
2023/10/21 02:51:40;;;;;;;11.98;3.30;;;;;;;20.81;nan;99199.91;5077754;28;20028;-70
2023/10/21 02:54:07;;;;;;;12.20;3.80;;;;;;;20.84;nan;99203.81;5058565;28;20017;-75
2023/10/21 02:56:33;;;;;;;13.15;3.70;;;;;;;20.75;nan;99192.38;5079673;28;20063;-72
2023/10/21 02:58:58;;;;;;;11.32;3.90;;;;;;;20.75;nan;99208.41;5075924;28;20024;-72
2023/10/21 03:01:24;;;;;;;13.93;3.47;;;;;;;20.77;nan;99203.53;5077986;28;20038;-72
2023/10/21 03:03:51;;;;;;;11.55;3.80;;;;;;;20.83;nan;99207.63;5060612;28;20676;-73
2023/10/21 03:06:20;;;;;;;14.25;3.58;;;;;;;20.81;nan;99274.03;5078753;28;20112;-73
2023/10/21 03:08:46;;;;;;;10.02;3.22;;;;;;;20.74;nan;99201.50;5068848;28;20459;-73
2023/10/21 03:11:11;;;;;;;13.93;3.55;;;;;;;;;;5077640;28;20102;-72
2023/10/21 03:13:37;;;;;;;16.83;3.90;;;;;;;;;;5067213;28;20024;-72
2023/10/21 03:16:16;;;;;;;14.43;3.35;;;;;;;20.76;nan;99159.16;5076237;28;20043;-71
2023/10/21 03:18:41;;;;;;;8.60;3.05;;;;;;;20.80;nan;99261.75;5077646;28;20032;-70
2023/10/21 03:21:07;;;;;;;8.48;3.28;;;;;;;20.80;nan;99216.25;5076874;28;20039;-70
2023/10/21 03:23:33;;;;;;;12.90;3.55;;;;;;;20.82;nan;99198.00;5065266;28;20012;-71
2023/10/21 03:26:04;;;;;;;11.50;3.55;;;;;;;20.81;nan;99223.19;5059497;28;20029;-72
2023/10/21 03:28:30;;;;;;;15.23;3.80;;;;;;;20.81;nan;99229.31;5079742;28;20016;-69
2023/10/21 03:31:00;;;;;;;12.82;3.20;;;;;;;20.76;nan;99213.47;5076615;28;20479;-71
2023/10/21 03:33:28;;;;;;;11.07;3.58;;;;;;;20.77;nan;99216.91;5078078;28;20024;-71
2023/10/21 03:35:55;;;;;;;11.73;3.60;;;;;;;20.80;nan;99240.34;5077703;28;20042;-70
2023/10/21 03:38:21;;;;;;;13.48;3.92;;;;;;;20.73;nan;99232.03;5078797;28;20027;-71
2023/10/21 03:41:03;;;;;;;11.45;3.40;;;;;;;20.79;nan;99230.75;5077422;28;20028;-71
2023/10/21 03:43:28;;;;;;;14.23;3.35;;;;;;;20.76;nan;99210.78;5061656;28;20020;-73
2023/10/21 03:45:55;;;;;;;12.40;3.40;;;;;;;20.72;nan;99225.91;5074641;28;20107;-71
2023/10/21 03:48:21;;;;;;;13.85;3.17;;;;;;;;;;5073708;28;20028;-71
2023/10/21 03:50:47;;;;;;;11.70;3.25;;;;;;;20.73;nan;99219.44;5076025;28;20042;-71
2023/10/21 03:53:14;;;;;;;10.38;3.55;;;;;;;20.72;nan;99275.94;5077796;28;20030;-69
2023/10/21 03:55:39;;;;;;;14.90;3.13;;;;;;;;;;5063120;28;20123;-71
2023/10/21 03:58:05;;;;;;;10.30;3.53;;;;;;;20.74;nan;99228.25;5073922;28;20158;-71
2023/10/21 04:00:30;;;;;;;15.10;3.35;;;;;;;;;;5060871;28;20040;-71
2023/10/21 04:02:55;;;;;;;10.70;3.43;;;;;;;20.79;nan;99214.69;5073506;28;20051;-70
2023/10/21 04:05:21;;;;;;;15.75;3.33;;;;;;;20.82;nan;99232.78;5075104;28;20287;-71
2023/10/21 04:07:46;;;;;;;16.25;3.45;;;;;;;20.85;nan;99208.03;5061886;28;20027;-71
2023/10/21 04:10:12;;;;;;;17.20;3.63;;;;;;;;;;5076387;28;20402;-71
2023/10/21 04:12:39;;;;;;;9.20;3.42;;;;;;;20.74;nan;99222.91;5074926;28;20021;-73
2023/10/21 04:15:05;;;;;;;14.00;3.53;;;;;;;;;;5061866;28;20043;-73
2023/10/21 04:17:30;;;;;;;10.13;3.17;;;;;;;20.86;nan;99236.41;5080866;28;20055;-72
2023/10/21 04:19:56;;;;;;;13.52;2.97;;;;;;;20.91;nan;99254.94;5075918;28;20122;-73
2023/10/21 04:22:21;;;;;;;10.55;3.60;;;;;;;20.91;nan;99248.81;5071625;28;20490;-72
2023/10/21 04:24:47;;;;;;;12.30;3.40;;;;;;;20.86;nan;99255.13;5075150;28;20568;-72
2023/10/21 04:27:12;;;;;;;18.60;3.30;;;;;;;20.94;nan;99243.59;5076512;28;20107;-72
2023/10/21 04:29:38;;;;;;;15.57;3.83;;;;;;;21.02;nan;99248.13;5075835;28;20027;-71
2023/10/21 04:32:03;;;;;;;21.27;3.30;;;;;;;21.11;nan;99260.66;5077484;28;20058;-71
2023/10/21 04:34:29;;;;;;;8.82;3.13;;;;;;;21.16;nan;99266.63;5056564;28;20111;-71
2023/10/21 04:36:54;;;;;;;12.40;3.63;;;;;;;21.16;nan;99250.56;5076981;28;20047;-72
2023/10/21 04:39:19;;;;;;;15.68;3.47;;;;;;;21.18;nan;99237.63;5064280;28;20055;-71
2023/10/21 04:41:47;;;;;;;10.95;3.30;;;;;;;;;;5055667;28;20042;-73
2023/10/21 04:44:13;;;;;;;10.45;3.38;;;;;;;;;;5072908;28;20107;-71
2023/10/21 04:46:39;;;;;;;12.57;3.33;;;;;;;21.28;nan;99244.50;5072564;28;20050;-71
2023/10/21 04:49:05;;;;;;;16.27;3.30;;;;;;;21.31;nan;99257.25;5075863;28;20916;-72
2023/10/21 04:51:31;;;;;;;8.48;3.58;;;;;;;21.29;nan;99261.38;5079106;28;20038;-73
2023/10/21 04:53:57;;;;;;;13.10;3.53;;;;;;;21.32;nan;99250.00;5075618;28;20024;-72
2023/10/21 04:56:24;;;;;;;13.05;3.25;;;;;;;21.31;nan;99265.28;5074775;28;20055;-73
2023/10/21 04:58:52;;;;;;;11.75;3.38;;;;;;;21.28;nan;99263.25;5078632;28;20029;-73
2023/10/21 05:01:17;;;;;;;10.93;3.35;;;;;;;21.27;nan;99267.03;5073148;28;20933;-73
2023/10/21 05:03:43;;;;;;;11.18;3.28;;;;;;;21.29;nan;99288.94;5076187;28;20039;-73
2023/10/21 05:06:10;;;;;;;20.30;4.63;;;;;;;21.23;nan;99282.19;5075089;28;20028;-73
2023/10/21 05:08:35;;;;;;;12.73;3.42;;;;;;;21.22;nan;99294.00;5091521;28;20027;-73
2023/10/21 05:11:00;;;;;;;13.30;3.90;;;;;;;21.22;nan;99296.69;5078875;28;20016;-72
2023/10/21 05:13:26;;;;;;;11.80;3.38;;;;;;;21.18;nan;99298.44;5061264;28;20078;-71
2023/10/21 05:15:51;;;;;;;10.93;3.25;;;;;;;21.15;nan;99291.06;5075644;28;20023;-70
2023/10/21 05:18:16;;;;;;;14.10;3.88;;;;;;;21.16;nan;99297.97;5073274;28;20036;-72
2023/10/21 05:20:42;;;;;;;16.88;3.75;;;;;;;21.11;nan;99250.75;5060347;28;20054;-73
2023/10/21 05:23:08;;;;;;;13.02;3.60;;;;;;;21.08;nan;99278.16;5076228;28;20089;-71
2023/10/21 05:25:33;;;;;;;10.32;3.30;;;;;;;21.16;nan;99333.53;5074650;28;20023;-73
2023/10/21 05:27:59;;;;;;;14.27;3.20;;;;;;;21.03;nan;99342.59;5057986;28;20859;-74
2023/10/21 05:30:24;;;;;;;9.13;3.90;;;;;;;21.11;nan;99349.00;5078094;28;20032;-74
2023/10/21 05:32:50;;;;;;;9.82;2.90;;;;;;;21.03;nan;99350.63;5058381;28;20036;-74
2023/10/21 05:35:15;;;;;;;15.43;2.95;;;;;;;21.08;nan;99384.47;5076487;28;20038;-73
2023/10/21 05:37:41;;;;;;;12.73;3.80;;;;;;;21.04;nan;99331.53;5072996;28;20025;-73
2023/10/21 05:40:07;;;;;;;10.82;3.85;;;;;;;21.01;nan;99379.59;5090648;28;20126;-74
2023/10/21 05:42:32;;;;;;;13.88;4.07;;;;;;;;;;5074677;28;20024;-73
2023/10/21 05:44:59;;;;;;;11.23;3.30;;;;;;;20.98;nan;99359.59;5070124;28;20119;-73
2023/10/21 05:47:26;;;;;;;12.88;3.75;;;;;;;20.96;nan;99367.16;5075402;28;20074;-73
2023/10/21 05:49:52;;;;;;;11.20;3.63;;;;;;;20.99;nan;99333.63;5075995;28;20024;-74
2023/10/21 05:52:18;;;;;;;13.45;3.33;;;;;;;20.95;nan;99376.31;5070361;28;20036;-73
2023/10/21 05:54:44;;;;;;;11.63;3.33;;;;;;;21.00;nan;99383.38;5072006;28;20102;-76
2023/10/21 05:57:09;;;;;;;13.93;3.50;;;;;;;;;;5070011;28;20054;-73
2023/10/21 05:59:34;;;;;;;13.60;3.43;;;;;;;20.96;nan;99371.72;5072859;28;20482;-75
2023/10/21 06:02:01;;;;;;;13.88;3.45;;;;;;;20.95;nan;99281.81;5075449;28;20285;-72
2023/10/21 06:04:26;;;;;;;8.85;3.28;;;;;;;21.02;nan;99389.97;5075120;28;20026;-74
2023/10/21 06:06:54;;;;;;;12.13;3.30;;;;;;;21.06;nan;99392.00;5074352;28;20020;-72
2023/10/21 06:09:26;;;;;;;9.00;2.83;;;;;;;21.06;nan;99382.09;5076397;28;20083;-73
2023/10/21 06:11:52;;;;;;;11.70;2.85;;;;;;;21.11;nan;99383.81;5064449;28;20024;-71
2023/10/21 06:14:17;;;;;;;9.10;3.20;;;;;;;21.16;nan;99386.31;5073904;28;20528;-73
2023/10/21 06:16:43;;;;;;;15.15;3.00;;;;;;;21.19;nan;99402.53;5090490;28;20028;-72
2023/10/21 06:19:10;;;;;;;9.13;2.60;;;;;;;21.22;nan;99401.88;5071897;28;20526;-74
2023/10/21 06:21:36;;;;;;;10.80;3.58;;;;;;;21.29;nan;99412.09;5074162;28;20024;-72
2023/10/21 06:24:04;;;;;;;7.85;2.55;;;;;;;21.31;nan;99412.56;5079255;28;20024;-73
2023/10/21 06:26:33;;;;;;;19.27;3.40;;;;;;;21.33;nan;99380.09;5079068;28;20386;-72
2023/10/21 06:28:59;;;;;;;11.05;2.78;;;;;;;21.37;nan;99416.63;5081289;28;20031;-73
2023/10/21 06:31:26;;;;;;;10.30;2.60;;;;;;;21.35;nan;99436.81;5075231;28;20057;-72
2023/10/21 06:33:52;;;;;;;15.00;3.13;;;;;;;21.43;nan;99418.06;5077747;28;20031;-71
2023/10/21 06:36:17;;;;;;;13.23;3.20;;;;;;;21.49;nan;99418.66;5078029;28;20025;-72
2023/10/21 06:38:42;;;;;;;11.52;3.10;;;;;;;;;;5076650;28;20040;-71
2023/10/21 06:41:10;;;;;;;13.17;2.80;;;;;;;;;;5069052;28;20192;-72
2023/10/21 06:43:36;;;;;;;16.45;3.08;;;;;;;21.69;nan;99413.69;5077998;28;20313;-74
2023/10/21 06:46:02;;;;;;;13.98;3.17;;;;;;;21.75;nan;99405.16;5077134;28;20545;-71
2023/10/21 06:48:28;;;;;;;8.93;2.90;;;;;;;21.83;nan;99478.56;5060430;28;20489;-71
2023/10/21 06:50:55;;;;;;;12.20;2.90;;;;;;;21.92;nan;99424.94;5080188;28;20024;-72
2023/10/21 06:53:21;;;;;;;9.65;2.83;;;;;;;22.04;nan;99420.41;5069456;28;20043;-72
2023/10/21 06:55:47;;;;;;;10.65;2.60;;;;;;;22.17;nan;99420.50;5076858;28;20045;-71
2023/10/21 06:58:12;;;;;;;15.93;2.70;;;;;;;22.29;nan;99436.69;5064576;28;20110;-72
2023/10/21 07:00:38;;;;;;;9.35;2.92;;;;;;;22.48;nan;99361.09;5079838;28;20032;-70
2023/10/21 07:03:04;;;;;;;27.35;4.95;;;;;;;22.56;nan;99430.03;5062307;28;20031;-73
2023/10/21 07:05:30;;;;;;;23.52;3.53;;;;;;;;;;5080507;28;20028;-73
2023/10/21 07:07:55;;;;;;;19.50;2.70;;;;;;;22.65;nan;99444.16;5079350;28;20077;-72
2023/10/21 07:10:20;;;;;;;13.18;2.85;;;;;;;22.72;nan;99438.22;5080544;28;20039;-72
2023/10/21 07:12:46;;;;;;;15.80;2.67;;;;;;;22.68;nan;99443.50;5061557;28;20149;-72
2023/10/21 07:15:11;;;;;;;14.80;3.38;;;;;;;22.73;nan;99454.03;5062287;28;20466;-72
2023/10/21 07:17:37;;;;;;;15.15;3.22;;;;;;;22.82;nan;99478.13;5078296;28;20035;-71
2023/10/21 07:20:05;;;;;;;16.65;3.47;;;;;;;22.85;nan;99490.09;5075721;28;20039;-72
2023/10/21 07:22:31;;;;;;;16.77;3.23;;;;;;;22.87;nan;99461.78;5077428;28;20037;-71
2023/10/21 07:24:57;;;;;;;13.88;2.92;;;;;;;22.91;nan;99445.81;5078915;28;20028;-71
2023/10/21 07:27:23;;;;;;;12.00;3.28;;;;;;;22.86;nan;99405.75;5076860;28;20031;-71
2023/10/21 07:29:48;;;;;;;11.93;3.08;;;;;;;22.97;nan;99481.31;5076325;28;20749;-72
2023/10/21 07:32:14;;;;;;;17.60;3.40;;;;;;;22.92;nan;99453.53;5061931;28;20028;-73
2023/10/21 07:34:39;;;;;;;11.57;3.05;;;;;;;22.97;nan;99475.94;5080684;28;20024;-72
2023/10/21 07:37:05;;;;;;;21.05;3.33;;;;;;;23.04;nan;99463.56;5073423;28;20052;-72
2023/10/21 07:39:30;;;;;;;10.27;3.00;;;;;;;23.07;nan;99480.91;5076408;28;20059;-71
2023/10/21 07:41:56;;;;;;;15.98;3.00;;;;;;;23.12;nan;99505.66;5074052;28;20021;-71
2023/10/21 07:44:22;;;;;;;12.73;3.17;;;;;;;23.21;nan;99494.06;5079612;28;20069;-73
2023/10/21 07:46:47;;;;;;;16.83;3.30;;;;;;;23.32;nan;99454.88;5075872;28;20024;-72
2023/10/21 07:49:13;;;;;;;12.68;3.03;;;;;;;23.40;nan;99439.81;5076459;28;20034;-72
2023/10/21 07:51:39;;;;;;;12.70;2.92;;;;;;;23.53;nan;99519.31;5060833;28;20062;-73
2023/10/21 07:54:05;;;;;;;12.55;3.03;;;;;;;23.67;nan;99451.81;5062288;28;20462;-71
2023/10/21 07:56:30;;;;;;;14.63;2.97;;;;;;;23.79;nan;99473.34;5077783;28;20036;-72
2023/10/21 07:58:56;;;;;;;18.90;2.78;;;;;;;23.76;nan;99447.13;5060228;28;20492;-72
2023/10/21 08:01:22;;;;;;;15.65;2.92;;;;;;;24.03;nan;99494.06;5074377;28;20024;-72
2023/10/21 08:03:47;;;;;;;21.55;3.05;;;;;;;24.06;nan;99465.69;5075542;28;20494;-72
2023/10/21 08:06:14;;;;;;;18.85;3.20;;;;;;;24.16;nan;99435.66;5064919;28;20437;-73
2023/10/21 08:08:40;;;;;;;14.10;3.58;;;;;;;24.26;nan;99454.03;5076064;28;20029;-71
2023/10/21 08:11:06;;;;;;;15.73;3.30;;;;;;;24.30;nan;99500.66;5075100;28;20024;-72
2023/10/21 08:13:31;;;;;;;14.07;3.53;;;;;;;24.34;nan;99506.91;5076676;28;20823;-75
2023/10/21 08:15:57;;;;;;;13.35;3.10;;;;;;;24.36;nan;99477.75;5079444;28;20557;-73
2023/10/21 08:18:23;;;;;;;17.35;3.17;;;;;;;24.46;nan;99513.41;5075749;28;20035;-73
2023/10/21 08:20:49;;;;;;;14.32;2.85;;;;;;;24.48;nan;99490.44;5077445;28;20036;-74
2023/10/21 08:23:15;;;;;;;8.73;2.42;;;;;;;24.59;nan;99525.72;5075513;28;20539;-74
2023/10/21 08:25:41;;;;;;;13.77;3.15;;;;;;;24.61;nan;99475.03;5074840;28;20409;-72
2023/10/21 08:28:08;;;;;;;18.40;2.90;;;;;;;24.62;nan;99490.84;5075759;28;20032;-73
2023/10/21 08:30:34;;;;;;;12.57;2.70;;;;;;;24.57;nan;99506.47;5078988;28;20038;-74
2023/10/21 08:32:59;;;;;;;15.30;3.25;;;;;;;24.50;nan;99539.34;5077176;28;20394;-73
2023/10/21 08:35:24;;;;;;;15.45;3.08;;;;;;;;;;5074669;28;20023;-77
2023/10/21 08:37:50;;;;;;;12.50;3.17;;;;;;;24.51;nan;99507.81;5074367;28;20043;-74
2023/10/21 08:40:16;;;;;;;14.93;3.03;;;;;;;24.51;nan;99491.66;5076376;28;20043;-73
2023/10/21 08:42:42;;;;;;;13.80;3.03;;;;;;;24.50;nan;99508.94;5073194;28;20396;-72
2023/10/21 08:45:09;;;;;;;15.82;3.25;;;;;;;24.44;nan;99504.88;5056442;28;20058;-73
2023/10/21 08:47:36;;;;;;;16.73;2.90;;;;;;;24.38;nan;99515.88;5073147;28;20024;-75
2023/10/21 08:50:03;;;;;;;13.93;3.35;;;;;;;24.38;nan;99520.47;5076220;28;20036;-73
2023/10/21 08:52:30;;;;;;;15.75;3.25;;;;;;;24.34;nan;99533.81;5076725;28;20024;-74
2023/10/21 08:54:56;;;;;;;12.52;3.03;;;;;;;24.33;nan;99518.03;5076710;28;20053;-73
2023/10/21 08:57:22;;;;;;;12.88;3.10;;;;;;;24.31;nan;99518.34;5056628;28;20024;-73
2023/10/21 08:59:49;;;;;;;24.40;3.60;;;;;;;24.26;nan;99518.59;5057690;28;20036;-75
2023/10/21 09:02:17;;;;;;;12.43;3.40;;;;;;;24.20;nan;99501.09;5073877;28;20153;-72
2023/10/21 09:04:43;;;;;;;15.63;3.28;;;;;;;24.17;nan;99526.00;5074816;28;20457;-73
2023/10/21 09:07:08;;;;;;;13.10;3.35;;;;;;;24.17;nan;99564.44;5080053;28;20090;-73
2023/10/21 09:09:34;;;;;;;13.07;3.22;;;;;;;24.15;nan;99572.06;5073742;28;20085;-72
2023/10/21 09:12:10;;;;;;;9.52;3.03;;;;;;;24.16;nan;99492.16;5057697;28;20027;-72
2023/10/21 09:14:58;;;;;;;23.15;4.40;;;;;;;24.23;nan;99540.00;5076540;28;20378;-73
2023/10/21 09:17:34;;;;;;;42.37;16.27;;;;;;;24.24;nan;99536.97;5078295;28;20062;-75
2023/10/21 09:20:16;;;;;;;112.82;55.33;;;;;;;24.26;nan;99528.56;5080227;28;20035;-71
2023/10/21 09:22:46;;;;;;;18.80;6.55;;;;;;;24.32;nan;99540.66;5072710;28;20028;-72
2023/10/21 09:25:22;;;;;;;16.15;4.13;;;;;;;24.36;nan;99550.41;5077228;28;20028;-75
2023/10/21 09:27:55;;;;;;;13.25;3.33;;;;;;;24.34;nan;99544.59;5077108;28;20034;-73
2023/10/21 09:30:30;;;;;;;13.13;2.92;;;;;;;;;;5075969;28;20024;-72
2023/10/21 09:33:07;;;;;;;16.17;3.58;;;;;;;24.32;nan;99516.44;5076560;28;20016;-73
2023/10/21 09:35:33;;;;;;;15.98;3.55;;;;;;;;;;5075141;28;20438;-75
2023/10/21 09:38:15;;;;;;;11.82;3.20;;;;;;;24.42;nan;99545.56;5062877;28;20191;-74
2023/10/21 09:40:40;;;;;;;15.73;3.50;;;;;;;24.34;nan;99523.06;5056634;28;20033;-75
2023/10/21 09:43:08;;;;;;;13.55;3.17;;;;;;;24.38;nan;99548.19;5081922;28;20371;-72
2023/10/21 09:45:35;;;;;;;15.23;3.45;;;;;;;24.33;nan;99524.19;5059618;28;20055;-73
2023/10/21 09:48:05;;;;;;;19.08;4.05;;;;;;;24.38;nan;99547.41;5075634;28;20028;-73
2023/10/21 09:50:34;;;;;;;11.45;3.10;;;;;;;24.38;nan;99555.47;5073695;28;20162;-72
2023/10/21 09:53:06;;;;;;;18.00;3.72;;;;;;;24.35;nan;99572.25;5073632;28;20025;-74
2023/10/21 09:55:32;;;;;;;18.67;3.53;;;;;;;24.38;nan;99558.94;5073582;28;20503;-75
2023/10/21 09:57:58;;;;;;;11.73;2.88;;;;;;;24.34;nan;99530.34;5075768;28;20092;-73
2023/10/21 10:00:24;;;;;;;14.02;3.50;;;;;;;24.34;nan;99589.53;5067263;28;20032;-71
2023/10/21 10:02:53;;;;;;;10.88;2.90;;;;;;;24.36;nan;99557.72;5075579;28;20025;-73
2023/10/21 10:05:20;;;;;;;22.02;3.83;;;;;;;24.34;nan;99551.88;5079427;28;20032;-73
2023/10/21 10:07:47;;;;;;;13.23;3.88;;;;;;;24.33;nan;99561.09;5079160;28;20127;-72
2023/10/21 10:10:15;;;;;;;14.15;3.08;;;;;;;24.32;nan;99559.50;5077662;28;20036;-72
2023/10/21 10:12:44;;;;;;;14.93;3.28;;;;;;;24.28;nan;99561.28;5076982;28;20023;-73
2023/10/21 10:15:45;;;;;;;13.40;3.00;;;;;;;24.24;nan;99565.78;5080494;28;20029;-72
2023/10/21 10:18:19;;;;;;;18.95;2.88;;;;;;;24.25;nan;99559.28;5021479;28;20788;-72
2023/10/21 10:20:48;;;;;;;16.67;3.50;;;;;;;24.21;nan;99564.56;5020088;28;20099;-73
2023/10/21 10:23:14;;;;;;;13.68;3.38;;;;;;;24.20;nan;99589.88;5018352;28;20034;-73
2023/10/21 10:25:43;;;;;;;9.93;3.17;;;;;;;24.23;nan;99562.31;5020024;28;20037;-72
2023/10/21 10:28:16;;;;;;;18.80;2.85;;;;;;;24.17;nan;99559.06;5006939;28;20029;-72
2023/10/21 10:30:45;;;;;;;11.40;3.30;;;;;;;24.20;nan;99536.06;5020777;28;20079;-72
2023/10/21 10:33:15;;;;;;;15.07;3.15;;;;;;;24.22;nan;99562.66;5019295;28;20029;-72
2023/10/21 10:35:48;;;;;;;11.32;3.13;;;;;;;24.24;nan;99561.19;5021068;28;20067;-73
2023/10/21 10:38:20;;;;;;;24.30;3.65;;;;;;;24.26;nan;99564.34;5019428;28;20029;-74
2023/10/21 10:40:46;;;;;;;19.05;2.85;;;;;;;24.24;nan;99520.06;5003973;28;20041;-73
2023/10/21 10:43:13;;;;;;;15.85;3.47;;;;;;;24.23;nan;99567.69;5024284;28;20120;-73
2023/10/21 10:45:38;;;;;;;19.38;3.17;;;;;;;24.28;nan;99561.28;5000771;28;20117;-73
2023/10/21 10:48:07;;;;;;;16.38;3.08;;;;;;;24.27;nan;99555.13;5017380;28;20061;-72
2023/10/21 10:50:39;;;;;;;15.50;3.90;;;;;;;24.25;nan;99543.91;5019107;28;20440;-73
2023/10/21 10:53:16;;;;;;;15.10;3.50;;;;;;;24.25;nan;99592.34;5069729;28;20033;-74
2023/10/21 10:55:54;;;;;;;20.33;3.35;;;;;;;24.26;nan;99545.50;5074812;28;20020;-73
2023/10/21 10:58:26;;;;;;;15.90;3.28;;;;;;;24.26;nan;99564.34;5077256;28;20027;-73
2023/10/21 11:00:52;;;;;;;12.57;3.10;;;;;;;24.23;nan;99604.56;5074509;28;20035;-73
2023/10/21 11:03:36;;;;;;;27.70;3.80;;;;;;;24.23;nan;99543.50;5072621;28;20036;-72
2023/10/21 11:06:03;;;;;;;20.70;3.53;;;;;;;24.16;nan;99589.00;5077823;28;20032;-72
2023/10/21 11:08:29;;;;;;;14.63;3.75;;;;;;;24.20;nan;99579.91;5077042;28;20028;-73
2023/10/21 11:11:02;;;;;;;17.02;3.75;;;;;;;24.17;nan;99588.66;5055935;28;20035;-73
2023/10/21 11:13:28;;;;;;;16.55;3.85;;;;;;;24.18;nan;99602.88;5060620;28;20016;-74
2023/10/21 11:15:57;;;;;;;19.77;4.80;;;;;;;24.18;nan;99565.22;5078980;28;20039;-71
2023/10/21 11:18:25;;;;;;;20.98;3.60;;;;;;;24.13;nan;99552.00;5068326;28;20024;-72
2023/10/21 11:20:52;;;;;;;23.83;4.13;;;;;;;24.18;nan;99571.41;5078398;28;20379;-72
2023/10/21 11:23:19;;;;;;;17.98;3.45;;;;;;;24.17;nan;99555.59;5094372;27;20494;-72
2023/10/21 11:25:48;;;;;;;24.13;3.92;;;;;;;24.16;nan;99556.72;5058433;28;20039;-75
2023/10/21 11:28:14;;;;;;;;;;;;;;;24.14;nan;99567.81;5078082;28;20552;-72
2023/10/21 11:30:43;;;;;;;13.88;3.40;;;;;;;24.05;nan;99540.22;5078035;28;19916;-74
2023/10/21 11:33:10;;;;;;;16.38;3.55;;;;;;;24.03;nan;99541.69;5074160;28;20115;-73
2023/10/21 11:35:39;;;;;;;22.27;4.30;;;;;;;24.04;nan;99549.44;5072814;28;20071;-72
2023/10/21 11:38:05;;;;;;;15.73;4.18;;;;;;;24.04;nan;99537.88;5077190;28;20024;-73
2023/10/21 11:40:33;;;;;;;18.85;3.58;;;;;;;24.05;nan;99604.78;5075778;28;20027;-73
2023/10/21 11:43:06;;;;;;;24.55;4.65;;;;;;;24.10;nan;99556.13;5072056;28;20028;-72
2023/10/21 11:45:32;;;;;;;17.30;4.35;;;;;;;24.12;nan;99551.22;5075456;28;20394;-72
2023/10/21 11:48:01;;;;;;;16.85;4.32;;;;;;;24.15;nan;99572.06;5076439;28;20021;-70
2023/10/21 11:50:34;;;;;;;19.60;4.15;;;;;;;24.16;nan;99546.72;5079816;28;20024;-70
2023/10/21 11:53:02;;;;;;;17.58;4.22;;;;;;;24.18;nan;99568.72;5077493;28;20016;-71